sensor_id;sensor_type;location;lat;lon;timestamp;temperature;humidity
43414;DHT22;29013;49.676;8.606;2023-07-20T00:03:48;21.4;72.9
43414;DHT22;29013;49.676;8.606;2023-07-20T00:09:08;21.3;72.8
43414;DHT22;29013;49.676;8.606;2023-07-20T00:14:28;21.1;73.1
43414;DHT22;29013;49.676;8.606;2023-07-20T00:19:49;21.1;73.1
43414;DHT22;29013;49.676;8.606;2023-07-20T00:25:11;21.1;73.5
43414;DHT22;29013;49.676;8.606;2023-07-20T00:30:33;21.0;73.5
43414;DHT22;29013;49.676;8.606;2023-07-20T00:36:13;20.8;74.1
43414;DHT22;29013;49.676;8.606;2023-07-20T00:41:56;20.8;74.4
43414;DHT22;29013;49.676;8.606;2023-07-20T00:47:15;20.8;74.4
43414;DHT22;29013;49.676;8.606;2023-07-20T00:52:34;20.6;74.6
43414;DHT22;29013;49.676;8.606;2023-07-20T00:57:54;20.4;75.3
43414;DHT22;29013;49.676;8.606;2023-07-20T01:03:16;20.2;75.4
43414;DHT22;29013;49.676;8.606;2023-07-20T01:08:39;20.1;76.3
43414;DHT22;29013;49.676;8.606;2023-07-20T01:13:57;20.0;76.8
43414;DHT22;29013;49.676;8.606;2023-07-20T01:19:19;19.8;77.6
43414;DHT22;29013;49.676;8.606;2023-07-20T01:24:51;19.6;77.7
43414;DHT22;29013;49.676;8.606;2023-07-20T01:30:35;19.6;78.0
43414;DHT22;29013;49.676;8.606;2023-07-20T01:35:52;19.6;78.5
43414;DHT22;29013;49.676;8.606;2023-07-20T01:41:12;19.4;78.4
43414;DHT22;29013;49.676;8.606;2023-07-20T01:46:32;19.3;78.5
43414;DHT22;29013;49.676;8.606;2023-07-20T01:52:19;19.3;79.9
43414;DHT22;29013;49.676;8.606;2023-07-20T01:57:38;19.3;79.4
43414;DHT22;29013;49.676;8.606;2023-07-20T02:02:58;19.2;80.1
43414;DHT22;29013;49.676;8.606;2023-07-20T02:08:19;19.1;80.3
43414;DHT22;29013;49.676;8.606;2023-07-20T02:13:55;18.9;81.2
43414;DHT22;29013;49.676;8.606;2023-07-20T02:19:15;19.0;81.2
43414;DHT22;29013;49.676;8.606;2023-07-20T02:24:35;18.8;81.6
43414;DHT22;29013;49.676;8.606;2023-07-20T02:29:57;18.7;82.1
43414;DHT22;29013;49.676;8.606;2023-07-20T02:35:20;18.6;82.9
43414;DHT22;29013;49.676;8.606;2023-07-20T02:40:40;18.6;82.9
43414;DHT22;29013;49.676;8.606;2023-07-20T02:46:00;18.5;84.3
43414;DHT22;29013;49.676;8.606;2023-07-20T02:51:21;18.4;83.9
43414;DHT22;29013;49.676;8.606;2023-07-20T02:56:41;18.3;85.1
43414;DHT22;29013;49.676;8.606;2023-07-20T03:02:01;18.3;84.8
43414;DHT22;29013;49.676;8.606;2023-07-20T03:07:43;18.2;85.4
43414;DHT22;29013;49.676;8.606;2023-07-20T03:13:01;18.2;84.1
43414;DHT22;29013;49.676;8.606;2023-07-20T03:18:22;18.0;84.9
43414;DHT22;29013;49.676;8.606;2023-07-20T03:23:41;17.9;85.9
43414;DHT22;29013;49.676;8.606;2023-07-20T03:29:03;17.9;86.8
43414;DHT22;29013;49.676;8.606;2023-07-20T03:34:24;17.9;87.0
43414;DHT22;29013;49.676;8.606;2023-07-20T03:39:44;17.8;87.4
43414;DHT22;29013;49.676;8.606;2023-07-20T03:45:09;17.8;88.3
43414;DHT22;29013;49.676;8.606;2023-07-20T03:50:27;17.8;88.6
43414;DHT22;29013;49.676;8.606;2023-07-20T03:55:49;17.8;89.5
43414;DHT22;29013;49.676;8.606;2023-07-20T04:01:09;17.7;89.5
43414;DHT22;29013;49.676;8.606;2023-07-20T04:06:29;17.7;89.9
43414;DHT22;29013;49.676;8.606;2023-07-20T04:11:50;17.7;89.8
43414;DHT22;29013;49.676;8.606;2023-07-20T04:17:11;17.8;90.1
43414;DHT22;29013;49.676;8.606;2023-07-20T04:22:33;17.8;90.5
43414;DHT22;29013;49.676;8.606;2023-07-20T04:27:54;17.8;90.3
43414;DHT22;29013;49.676;8.606;2023-07-20T04:33:14;17.8;90.2
43414;DHT22;29013;49.676;8.606;2023-07-20T04:38:33;17.9;90.4
43414;DHT22;29013;49.676;8.606;2023-07-20T04:43:54;17.9;90.4
43414;DHT22;29013;49.676;8.606;2023-07-20T04:49:16;17.9;90.3
43414;DHT22;29013;49.676;8.606;2023-07-20T04:54:38;18.0;90.4
43414;DHT22;29013;49.676;8.606;2023-07-20T05:00:19;18.0;90.7
43414;DHT22;29013;49.676;8.606;2023-07-20T05:05:39;18.3;90.4
43414;DHT22;29013;49.676;8.606;2023-07-20T05:11:00;18.3;90.4
43414;DHT22;29013;49.676;8.606;2023-07-20T05:16:21;18.6;90.3
43414;DHT22;29013;49.676;8.606;2023-07-20T05:21:41;18.9;90.1
43414;DHT22;29013;49.676;8.606;2023-07-20T05:27:02;19.2;89.7
43414;DHT22;29013;49.676;8.606;2023-07-20T05:32:25;19.4;89.3
43414;DHT22;29013;49.676;8.606;2023-07-20T05:37:46;19.5;88.6
43414;DHT22;29013;49.676;8.606;2023-07-20T05:43:09;19.6;87.8
43414;DHT22;29013;49.676;8.606;2023-07-20T05:48:28;19.3;87.3
43414;DHT22;29013;49.676;8.606;2023-07-20T05:53:47;19.2;88.7
43414;DHT22;29013;49.676;8.606;2023-07-20T05:59:07;19.3;88.6
43414;DHT22;29013;49.676;8.606;2023-07-20T06:04:29;19.5;88.5
43414;DHT22;29013;49.676;8.606;2023-07-20T06:09:51;19.6;88.0
43414;DHT22;29013;49.676;8.606;2023-07-20T06:15:27;19.7;87.8
43414;DHT22;29013;49.676;8.606;2023-07-20T06:20:49;19.7;86.6
43414;DHT22;29013;49.676;8.606;2023-07-20T06:26:09;19.6;86.4
43414;DHT22;29013;49.676;8.606;2023-07-20T06:31:31;19.7;85.5
43414;DHT22;29013;49.676;8.606;2023-07-20T06:36:52;19.8;86.9
43414;DHT22;29013;49.676;8.606;2023-07-20T06:42:12;19.9;86.7
43414;DHT22;29013;49.676;8.606;2023-07-20T06:47:32;20.0;87.3
43414;DHT22;29013;49.676;8.606;2023-07-20T06:52:51;20.2;86.7
43414;DHT22;29013;49.676;8.606;2023-07-20T06:58:12;20.4;85.6
43414;DHT22;29013;49.676;8.606;2023-07-20T07:03:34;20.5;84.8
43414;DHT22;29013;49.676;8.606;2023-07-20T07:08:55;20.6;83.5
43414;DHT22;29013;49.676;8.606;2023-07-20T07:14:16;21.0;82.6
43414;DHT22;29013;49.676;8.606;2023-07-20T07:19:39;21.4;80.7
43414;DHT22;29013;49.676;8.606;2023-07-20T07:25:04;21.8;80.9
43414;DHT22;29013;49.676;8.606;2023-07-20T07:30:26;22.2;80.1
43414;DHT22;29013;49.676;8.606;2023-07-20T07:35:46;22.3;78.0
43414;DHT22;29013;49.676;8.606;2023-07-20T07:41:07;22.4;77.4
43414;DHT22;29013;49.676;8.606;2023-07-20T07:46:28;22.3;77.1
43414;DHT22;29013;49.676;8.606;2023-07-20T07:51:48;22.4;77.1
43414;DHT22;29013;49.676;8.606;2023-07-20T07:57:09;22.3;76.9
43414;DHT22;29013;49.676;8.606;2023-07-20T08:02:31;22.1;77.3
43414;DHT22;29013;49.676;8.606;2023-07-20T08:07:53;22.1;77.6
43414;DHT22;29013;49.676;8.606;2023-07-20T08:13:15;22.1;76.8
43414;DHT22;29013;49.676;8.606;2023-07-20T08:18:35;22.3;77.4
43414;DHT22;29013;49.676;8.606;2023-07-20T08:24:12;22.2;77.4
43414;DHT22;29013;49.676;8.606;2023-07-20T08:29:31;22.2;76.5
43414;DHT22;29013;49.676;8.606;2023-07-20T08:34:53;22.2;76.4
43414;DHT22;29013;49.676;8.606;2023-07-20T08:40:15;22.1;76.6
43414;DHT22;29013;49.676;8.606;2023-07-20T08:45:38;22.1;76.6
43414;DHT22;29013;49.676;8.606;2023-07-20T08:50:56;22.3;76.7
43414;DHT22;29013;49.676;8.606;2023-07-20T08:56:16;22.5;75.6
43414;DHT22;29013;49.676;8.606;2023-07-20T09:01:36;22.6;75.0
43414;DHT22;29013;49.676;8.606;2023-07-20T09:06:57;22.7;74.4
43414;DHT22;29013;49.676;8.606;2023-07-20T09:12:17;22.8;74.7
43414;DHT22;29013;49.676;8.606;2023-07-20T09:18:02;22.8;74.6
43414;DHT22;29013;49.676;8.606;2023-07-20T09:23:20;23.1;74.3
43414;DHT22;29013;49.676;8.606;2023-07-20T09:28:47;23.5;73.2
43414;DHT22;29013;49.676;8.606;2023-07-20T09:34:03;23.7;70.7
43414;DHT22;29013;49.676;8.606;2023-07-20T09:39:46;23.6;70.8
43414;DHT22;29013;49.676;8.606;2023-07-20T09:45:10;23.7;69.5
43414;DHT22;29013;49.676;8.606;2023-07-20T09:50:32;23.9;68.4
43414;DHT22;29013;49.676;8.606;2023-07-20T09:55:52;24.0;68.7
43414;DHT22;29013;49.676;8.606;2023-07-20T10:01:14;24.2;68.8
43414;DHT22;29013;49.676;8.606;2023-07-20T10:06:34;24.3;67.4
43414;DHT22;29013;49.676;8.606;2023-07-20T10:11:54;24.2;67.8
43414;DHT22;29013;49.676;8.606;2023-07-20T10:17:34;24.3;69.0
43414;DHT22;29013;49.676;8.606;2023-07-20T10:22:54;24.6;65.2
43414;DHT22;29013;49.676;8.606;2023-07-20T10:28:14;24.9;64.9
43414;DHT22;29013;49.676;8.606;2023-07-20T10:33:35;25.0;64.2
43414;DHT22;29013;49.676;8.606;2023-07-20T10:38:56;25.0;63.8
43414;DHT22;29013;49.676;8.606;2023-07-20T10:44:19;25.4;64.5
43414;DHT22;29013;49.676;8.606;2023-07-20T10:49:39;25.6;63.3
43414;DHT22;29013;49.676;8.606;2023-07-20T10:54:59;25.8;62.5
43414;DHT22;29013;49.676;8.606;2023-07-20T11:00:20;25.9;62.3
43414;DHT22;29013;49.676;8.606;2023-07-20T11:05:41;26.0;61.9
43414;DHT22;29013;49.676;8.606;2023-07-20T11:11:26;25.9;61.6
43414;DHT22;29013;49.676;8.606;2023-07-20T11:16:46;26.2;61.0
43414;DHT22;29013;49.676;8.606;2023-07-20T11:22:06;26.1;61.1
43414;DHT22;29013;49.676;8.606;2023-07-20T11:27:49;26.1;61.8
43414;DHT22;29013;49.676;8.606;2023-07-20T11:33:09;26.0;59.7
43414;DHT22;29013;49.676;8.606;2023-07-20T11:38:29;25.8;60.4
43414;DHT22;29013;49.676;8.606;2023-07-20T11:43:49;25.6;60.4
43414;DHT22;29013;49.676;8.606;2023-07-20T11:49:08;25.5;61.8
43414;DHT22;29013;49.676;8.606;2023-07-20T11:54:55;25.5;61.8
43414;DHT22;29013;49.676;8.606;2023-07-20T12:00:27;25.7;61.5
43414;DHT22;29013;49.676;8.606;2023-07-20T12:05:47;25.8;61.4
43414;DHT22;29013;49.676;8.606;2023-07-20T12:11:07;25.8;60.9
43414;DHT22;29013;49.676;8.606;2023-07-20T12:16:28;25.9;60.4
43414;DHT22;29013;49.676;8.606;2023-07-20T12:21:47;25.7;60.2
43414;DHT22;29013;49.676;8.606;2023-07-20T12:27:08;25.9;60.3
43414;DHT22;29013;49.676;8.606;2023-07-20T12:32:29;26.1;60.5
43414;DHT22;29013;49.676;8.606;2023-07-20T12:37:49;26.2;60.7
43414;DHT22;29013;49.676;8.606;2023-07-20T12:43:09;26.7;60.6
43414;DHT22;29013;49.676;8.606;2023-07-20T12:48:28;27.0;59.1
43414;DHT22;29013;49.676;8.606;2023-07-20T12:54:09;27.1;59.1
43414;DHT22;29013;49.676;8.606;2023-07-20T12:59:29;27.2;57.7
43414;DHT22;29013;49.676;8.606;2023-07-20T13:04:50;27.0;56.7
43414;DHT22;29013;49.676;8.606;2023-07-20T13:10:12;27.3;57.3
43414;DHT22;29013;49.676;8.606;2023-07-20T13:15:43;27.4;58.0
43414;DHT22;29013;49.676;8.606;2023-07-20T13:21:17;27.6;57.4
43414;DHT22;29013;49.676;8.606;2023-07-20T13:26:37;27.9;56.4
43414;DHT22;29013;49.676;8.606;2023-07-20T13:31:58;27.9;55.6
43414;DHT22;29013;49.676;8.606;2023-07-20T13:37:17;28.1;56.0
43414;DHT22;29013;49.676;8.606;2023-07-20T13:42:39;28.0;55.8
43414;DHT22;29013;49.676;8.606;2023-07-20T13:47:59;27.6;56.0
43414;DHT22;29013;49.676;8.606;2023-07-20T13:53:18;27.2;56.0
43414;DHT22;29013;49.676;8.606;2023-07-20T13:58:39;27.3;56.8
43414;DHT22;29013;49.676;8.606;2023-07-20T14:03:59;27.6;57.3
43414;DHT22;29013;49.676;8.606;2023-07-20T14:09:34;27.4;57.3
43414;DHT22;29013;49.676;8.606;2023-07-20T14:14:55;27.7;56.5
43414;DHT22;29013;49.676;8.606;2023-07-20T14:20:16;27.6;56.5
43414;DHT22;29013;49.676;8.606;2023-07-20T14:25:35;27.5;55.6
43414;DHT22;29013;49.676;8.606;2023-07-20T14:30:57;27.7;56.4
43414;DHT22;29013;49.676;8.606;2023-07-20T14:36:46;27.6;56.4
43414;DHT22;29013;49.676;8.606;2023-07-20T14:42:07;27.8;56.1
43414;DHT22;29013;49.676;8.606;2023-07-20T14:48:11;27.6;55.3
43414;DHT22;29013;49.676;8.606;2023-07-20T14:53:28;27.7;55.7
43414;DHT22;29013;49.676;8.606;2023-07-20T14:58:47;27.5;55.3
43414;DHT22;29013;49.676;8.606;2023-07-20T15:04:06;27.3;55.8
43414;DHT22;29013;49.676;8.606;2023-07-20T15:09:26;27.4;55.0
43414;DHT22;29013;49.676;8.606;2023-07-20T15:14:49;27.7;55.1
43414;DHT22;29013;49.676;8.606;2023-07-20T15:20:11;27.9;54.0
43414;DHT22;29013;49.676;8.606;2023-07-20T15:25:30;28.5;54.7
43414;DHT22;29013;49.676;8.606;2023-07-20T15:30:51;29.4;54.0
43414;DHT22;29013;49.676;8.606;2023-07-20T15:36:13;30.2;52.5
43414;DHT22;29013;49.676;8.606;2023-07-20T15:41:34;30.0;50.9
43414;DHT22;29013;49.676;8.606;2023-07-20T15:46:54;29.7;50.9
43414;DHT22;29013;49.676;8.606;2023-07-20T15:52:14;29.9;51.7
43414;DHT22;29013;49.676;8.606;2023-07-20T15:57:35;29.6;49.6
43414;DHT22;29013;49.676;8.606;2023-07-20T16:02:54;29.4;50.1
43414;DHT22;29013;49.676;8.606;2023-07-20T16:08:14;29.7;49.4
43414;DHT22;29013;49.676;8.606;2023-07-20T16:13:34;30.0;50.3
43414;DHT22;29013;49.676;8.606;2023-07-20T16:18:55;29.8;49.4
43414;DHT22;29013;49.676;8.606;2023-07-20T16:24:14;30.1;49.4
43414;DHT22;29013;49.676;8.606;2023-07-20T16:29:36;30.1;47.8
43414;DHT22;29013;49.676;8.606;2023-07-20T16:34:57;30.1;48.8
43414;DHT22;29013;49.676;8.606;2023-07-20T16:40:19;30.1;47.9
43414;DHT22;29013;49.676;8.606;2023-07-20T16:45:40;29.3;49.2
43414;DHT22;29013;49.676;8.606;2023-07-20T16:51:01;28.8;50.0
43414;DHT22;29013;49.676;8.606;2023-07-20T16:56:20;28.7;50.2
43414;DHT22;29013;49.676;8.606;2023-07-20T17:01:41;28.6;50.3
43414;DHT22;29013;49.676;8.606;2023-07-20T17:07:01;28.3;50.5
43414;DHT22;29013;49.676;8.606;2023-07-20T17:12:21;28.1;51.1
43414;DHT22;29013;49.676;8.606;2023-07-20T17:17:41;28.0;51.7
43414;DHT22;29013;49.676;8.606;2023-07-20T17:23:02;27.9;51.6
43414;DHT22;29013;49.676;8.606;2023-07-20T17:28:21;27.9;51.8
43414;DHT22;29013;49.676;8.606;2023-07-20T17:33:40;27.7;52.3
43414;DHT22;29013;49.676;8.606;2023-07-20T17:39:00;27.5;52.5
43414;DHT22;29013;49.676;8.606;2023-07-20T17:44:19;27.3;52.6
43414;DHT22;29013;49.676;8.606;2023-07-20T17:49:40;27.1;53.3
43414;DHT22;29013;49.676;8.606;2023-07-20T17:55:01;26.9;53.6
43414;DHT22;29013;49.676;8.606;2023-07-20T18:00:22;26.7;54.4
43414;DHT22;29013;49.676;8.606;2023-07-20T18:05:40;26.4;54.6
43414;DHT22;29013;49.676;8.606;2023-07-20T18:11:05;26.2;55.3
43414;DHT22;29013;49.676;8.606;2023-07-20T18:16:25;26.2;55.3
43414;DHT22;29013;49.676;8.606;2023-07-20T18:21:46;26.3;55.3
43414;DHT22;29013;49.676;8.606;2023-07-20T18:27:07;26.2;55.7
43414;DHT22;29013;49.676;8.606;2023-07-20T18:32:27;26.1;55.6
43414;DHT22;29013;49.676;8.606;2023-07-20T18:37:46;25.9;56.0
43414;DHT22;29013;49.676;8.606;2023-07-20T18:43:06;25.7;56.5
43414;DHT22;29013;49.676;8.606;2023-07-20T18:48:25;25.5;56.7
43414;DHT22;29013;49.676;8.606;2023-07-20T18:53:45;25.3;56.9
43414;DHT22;29013;49.676;8.606;2023-07-20T18:59:04;25.2;57.4
43414;DHT22;29013;49.676;8.606;2023-07-20T19:04:23;25.0;57.6
43414;DHT22;29013;49.676;8.606;2023-07-20T19:09:43;24.8;57.7
43414;DHT22;29013;49.676;8.606;2023-07-20T19:15:06;24.7;57.9
43414;DHT22;29013;49.676;8.606;2023-07-20T19:20:26;24.6;58.1
43414;DHT22;29013;49.676;8.606;2023-07-20T19:25:46;24.4;58.3
43414;DHT22;29013;49.676;8.606;2023-07-20T19:31:07;24.3;58.2
43414;DHT22;29013;49.676;8.606;2023-07-20T19:36:44;24.2;58.8
43414;DHT22;29013;49.676;8.606;2023-07-20T19:42:19;24.2;58.7
43414;DHT22;29013;49.676;8.606;2023-07-20T19:47:40;24.1;58.3
43414;DHT22;29013;49.676;8.606;2023-07-20T19:53:00;23.9;58.6
43414;DHT22;29013;49.676;8.606;2023-07-20T19:58:46;23.8;59.9
43414;DHT22;29013;49.676;8.606;2023-07-20T20:04:22;23.8;60.3
43414;DHT22;29013;49.676;8.606;2023-07-20T20:09:41;23.7;60.0
43414;DHT22;29013;49.676;8.606;2023-07-20T20:15:02;23.6;60.0
43414;DHT22;29013;49.676;8.606;2023-07-20T20:20:22;23.5;60.9
43414;DHT22;29013;49.676;8.606;2023-07-20T20:25:42;23.4;60.7
43414;DHT22;29013;49.676;8.606;2023-07-20T20:31:01;23.3;61.1
43414;DHT22;29013;49.676;8.606;2023-07-20T20:36:21;23.3;61.2
43414;DHT22;29013;49.676;8.606;2023-07-20T20:41:42;23.2;62.0
43414;DHT22;29013;49.676;8.606;2023-07-20T20:47:05;23.1;62.2
43414;DHT22;29013;49.676;8.606;2023-07-20T20:52:25;23.1;62.2
43414;DHT22;29013;49.676;8.606;2023-07-20T20:57:46;23.0;62.5
43414;DHT22;29013;49.676;8.606;2023-07-20T21:03:05;23.0;62.7
43414;DHT22;29013;49.676;8.606;2023-07-20T21:08:24;23.0;62.6
43414;DHT22;29013;49.676;8.606;2023-07-20T21:13:47;22.9;63.2
43414;DHT22;29013;49.676;8.606;2023-07-20T21:19:06;22.8;63.7
43414;DHT22;29013;49.676;8.606;2023-07-20T21:24:25;22.7;63.4
43414;DHT22;29013;49.676;8.606;2023-07-20T21:29:46;22.7;63.5
43414;DHT22;29013;49.676;8.606;2023-07-20T21:35:21;22.7;63.9
43414;DHT22;29013;49.676;8.606;2023-07-20T21:40:41;22.8;63.1
43414;DHT22;29013;49.676;8.606;2023-07-20T21:46:03;22.7;63.3
43414;DHT22;29013;49.676;8.606;2023-07-20T21:51:23;22.7;63.4
43414;DHT22;29013;49.676;8.606;2023-07-20T21:56:41;22.7;63.7
43414;DHT22;29013;49.676;8.606;2023-07-20T22:02:02;22.6;63.7
43414;DHT22;29013;49.676;8.606;2023-07-20T22:07:20;22.6;63.6
43414;DHT22;29013;49.676;8.606;2023-07-20T22:13:01;22.5;64.1
43414;DHT22;29013;49.676;8.606;2023-07-20T22:18:19;22.6;63.3
43414;DHT22;29013;49.676;8.606;2023-07-20T22:23:38;22.5;63.6
43414;DHT22;29013;49.676;8.606;2023-07-20T22:28:57;22.5;64.0
43414;DHT22;29013;49.676;8.606;2023-07-20T22:34:18;22.5;64.4
43414;DHT22;29013;49.676;8.606;2023-07-20T22:40:02;22.4;65.7
43414;DHT22;29013;49.676;8.606;2023-07-20T22:45:37;22.4;65.3
43414;DHT22;29013;49.676;8.606;2023-07-20T22:50:55;22.5;64.8
43414;DHT22;29013;49.676;8.606;2023-07-20T22:56:15;22.4;64.8
43414;DHT22;29013;49.676;8.606;2023-07-20T23:01:36;22.3;64.8
43414;DHT22;29013;49.676;8.606;2023-07-20T23:07:01;22.3;64.9
43414;DHT22;29013;49.676;8.606;2023-07-20T23:12:23;22.3;64.8
43414;DHT22;29013;49.676;8.606;2023-07-20T23:17:43;22.3;64.5
43414;DHT22;29013;49.676;8.606;2023-07-20T23:23:31;22.3;65.3
43414;DHT22;29013;49.676;8.606;2023-07-20T23:28:52;22.5;64.4
43414;DHT22;29013;49.676;8.606;2023-07-20T23:34:10;22.4;64.4
43414;DHT22;29013;49.676;8.606;2023-07-20T23:39:45;22.3;65.1
43414;DHT22;29013;49.676;8.606;2023-07-20T23:45:05;22.3;64.4
43414;DHT22;29013;49.676;8.606;2023-07-20T23:50:24;22.3;64.6
43414;DHT22;29013;49.676;8.606;2023-07-20T23:55:43;22.1;65.3
